Spencer, South Dakota
Current Conditions -  °F | °C
As of 12:03 PM on Sunday 21 Dec 2014 (Local Time) from KMHE Reporting Station
Scattered Clouds Scattered Clouds  
Wind Chill: -4°   Ceiling: Unl
Heat Index:   Visibility: 7mi
Dew Point: -1°   Wind: 15mph
Humidity: 89%   Direction: 150°SSE
Pressure: 29.62"   Gusts: NA
Location:  43.73°N, 97.59°W
Report Text: KMHE 211803Z AUTO 15013KT 7SM SCT005 01/M01 A2962 RMK AO2 T00111006
Loading
Personal Weather Stations






























Interactive Weather Map New forecast layout! Learn more

10-Day Weather Forecast

Advertisements
Track Severe Weather on mobile